createdAt,value
2017-11-16T00:01:48.936Z,104.90
2017-11-16T00:04:17.464Z,112.30
2017-11-16T00:06:46.636Z,111.20
2017-11-16T00:09:15.032Z,118.95
2017-11-16T00:11:44.201Z,102.97
2017-11-16T00:14:12.588Z,119.43
2017-11-16T00:16:40.995Z,111.40
2017-11-16T00:19:10.132Z,113.82
2017-11-16T00:21:38.510Z,98.25
2017-11-16T00:24:06.912Z,99.07
2017-11-16T00:26:35.301Z,87.72
2017-11-16T00:29:04.042Z,100.80
2017-11-16T00:31:32.422Z,97.30
2017-11-16T00:34:00.801Z,100.28
2017-11-16T00:36:29.206Z,113.93
2017-11-16T00:38:57.583Z,98.97
2017-11-16T00:41:26.955Z,98.70
2017-11-16T00:43:55.327Z,114.03
2017-11-16T00:46:23.727Z,133.98
2017-11-16T00:48:52.136Z,117.32
2017-11-16T00:51:20.516Z,114.80
2017-11-16T00:53:48.891Z,109.75
2017-11-16T00:56:17.298Z,115.93
2017-11-16T00:58:46.469Z,129.27
2017-11-16T01:01:14.867Z,111.07
2017-11-16T01:03:44.046Z,130.32
2017-11-16T01:06:12.437Z,108.78
2017-11-16T01:08:41.613Z,124.75
2017-11-16T01:11:09.998Z,111.68
2017-11-16T01:13:38.513Z,109.45
2017-11-16T01:16:06.905Z,103.22
2017-11-16T01:18:35.282Z,103.22
2017-11-16T01:21:03.695Z,107.53
2017-11-16T01:23:32.083Z,101.87
2017-11-16T01:26:01.163Z,96.35
2017-11-16T01:28:29.547Z,96.90
2017-11-16T01:30:57.923Z,105.10
2017-11-16T01:33:26.331Z,112.68
2017-11-16T01:35:54.715Z,106.82
2017-11-16T01:38:23.896Z,119.75
2017-11-16T01:40:52.292Z,102.80
2017-11-16T01:43:21.433Z,94.10
2017-11-16T01:45:49.831Z,99.68
2017-11-16T01:48:18.195Z,105.35
2017-11-16T01:50:46.714Z,115.32
2017-11-16T01:53:15.089Z,123.10
2017-11-16T01:55:43.464Z,113.32
2017-11-16T01:58:11.870Z,115.88
2017-11-16T02:00:41.012Z,124.25
2017-11-16T02:03:09.412Z,117.70
2017-11-16T02:05:37.793Z,115.05
2017-11-16T02:08:06.207Z,118.18
2017-11-16T02:10:35.356Z,124.40
2017-11-16T02:13:03.764Z,128.62
2017-11-16T02:15:32.181Z,128.15
2017-11-16T02:18:00.556Z,112.95
2017-11-16T02:20:29.164Z,113.60
2017-11-16T02:22:57.552Z,124.87
2017-11-16T02:25:25.952Z,138.73
2017-11-16T02:27:54.360Z,102.38
2017-11-16T02:30:23.509Z,133.27
2017-11-16T02:32:52.037Z,115.28
2017-11-16T02:35:21.286Z,130.37
2017-11-16T02:37:49.669Z,122.75
2017-11-16T02:40:18.083Z,131.80
2017-11-16T02:42:47.250Z,138.88
2017-11-16T02:45:15.945Z,119.53
2017-11-16T02:47:44.345Z,130.75
2017-11-16T02:50:13.491Z,132.30
2017-11-16T02:52:41.910Z,131.10
2017-11-16T02:55:10.299Z,163.82
2017-11-16T02:57:38.721Z,115.03
2017-11-16T03:00:07.102Z,134.73
2017-11-16T03:02:35.475Z,134.27
2017-11-16T03:05:03.904Z,133.95
2017-11-16T03:07:32.281Z,148.27
2017-11-16T03:10:00.943Z,142.95
2017-11-16T03:12:29.336Z,153.73
2017-11-16T03:14:57.726Z,145.32
2017-11-16T03:17:26.171Z,152.25
2017-11-16T03:19:54.528Z,147.57
2017-11-16T03:22:22.952Z,144.10
2017-11-16T03:24:51.332Z,138.27
2017-11-16T03:27:19.711Z,150.10
2017-11-16T03:29:48.134Z,159.00
2017-11-16T03:32:16.511Z,157.40
2017-11-16T03:34:44.927Z,148.48
2017-11-16T03:37:13.299Z,135.85
2017-11-16T03:39:41.705Z,125.62
2017-11-16T03:42:10.127Z,150.15
2017-11-16T03:44:38.528Z,143.23
2017-11-16T03:47:07.024Z,142.20
2017-11-16T03:49:35.406Z,120.80
2017-11-16T03:52:03.786Z,122.70
2017-11-16T03:54:32.182Z,126.90
2017-11-16T03:57:00.578Z,127.82
2017-11-16T03:59:29.097Z,131.65
2017-11-16T04:01:57.470Z,101.70
2017-11-16T04:04:25.839Z,77.53
2017-11-16T04:06:54.231Z,103.05
2017-11-16T04:09:22.611Z,73.28
2017-11-16T04:11:51.215Z,77.95
2017-11-16T04:14:19.581Z,70.10
2017-11-16T04:16:47.958Z,71.70
2017-11-16T04:19:16.366Z,69.15
2017-11-16T04:21:44.768Z,68.45
2017-11-16T04:24:13.403Z,67.30
2017-11-16T04:26:41.912Z,85.40
2017-11-16T04:29:10.299Z,78.30
2017-11-16T04:31:38.698Z,84.20
2017-11-16T04:34:07.839Z,71.20
2017-11-16T04:36:36.496Z,69.47
2017-11-16T04:39:04.889Z,76.62
2017-11-16T04:41:33.254Z,90.68
2017-11-16T04:44:01.648Z,76.90
2017-11-16T04:46:30.028Z,77.97
2017-11-16T04:48:58.421Z,68.80
2017-11-16T04:51:26.794Z,71.97
2017-11-16T04:53:55.182Z,65.80
2017-11-16T04:56:23.596Z,68.30
2017-11-16T04:58:51.971Z,72.70
2017-11-16T05:01:20.398Z,76.65
2017-11-16T05:03:48.766Z,77.40
2017-11-16T05:06:17.147Z,76.97
2017-11-16T05:08:45.579Z,78.22
2017-11-16T05:11:13.946Z,90.05
2017-11-16T05:13:42.624Z,68.87
2017-11-16T05:16:11.007Z,76.75
2017-11-16T05:18:39.373Z,73.85
2017-11-16T05:21:07.764Z,69.45
2017-11-16T05:23:36.159Z,73.97
2017-11-16T05:26:04.670Z,77.32
2017-11-16T05:28:33.045Z,78.95
2017-11-16T05:31:02.192Z,83.80
2017-11-16T05:33:30.612Z,76.53
2017-11-16T05:35:59.742Z,76.20
2017-11-16T05:38:28.159Z,81.47
2017-11-16T05:40:56.528Z,75.03
2017-11-16T05:43:24.895Z,80.75
2017-11-16T05:45:53.285Z,73.75
2017-11-16T05:48:21.655Z,69.53
2017-11-16T05:50:50.190Z,74.30
2017-11-16T05:53:19.339Z,79.53
2017-11-16T05:55:48.476Z,73.95
2017-11-16T05:58:17.640Z,65.93
2017-11-16T06:00:46.015Z,85.93
2017-11-16T06:03:14.678Z,76.82
2017-11-16T06:05:43.071Z,83.22
2017-11-16T06:08:11.444Z,75.60
2017-11-16T06:10:39.845Z,70.25
2017-11-16T06:13:08.221Z,82.65
2017-11-16T06:15:36.984Z,85.00
2017-11-16T06:18:05.357Z,80.65
2017-11-16T06:20:33.735Z,89.03
2017-11-16T06:23:02.129Z,80.53
2017-11-16T06:25:30.513Z,89.32
2017-11-16T06:27:58.946Z,81.37
2017-11-16T06:30:28.083Z,81.65
2017-11-16T06:32:56.450Z,80.28
2017-11-16T06:35:24.834Z,78.10
2017-11-16T06:37:53.228Z,87.18
2017-11-16T06:40:21.651Z,91.57
2017-11-16T06:42:50.787Z,82.12
2017-11-16T06:45:19.211Z,77.97
2017-11-16T06:47:47.608Z,76.53
2017-11-16T06:50:15.976Z,91.43
2017-11-16T06:52:45.427Z,84.62
2017-11-16T06:55:13.801Z,84.40
2017-11-16T06:57:42.175Z,81.47
2017-11-16T07:00:10.578Z,69.95
2017-11-16T07:02:38.950Z,81.03
2017-11-16T07:05:08.351Z,68.28
2017-11-16T07:07:36.727Z,84.07
2017-11-16T07:10:05.106Z,66.50
2017-11-16T07:12:33.491Z,83.15
2017-11-16T07:15:01.892Z,82.78
2017-11-16T07:17:30.545Z,69.40
2017-11-16T07:19:58.932Z,78.93
2017-11-16T07:22:27.307Z,89.13
2017-11-16T07:24:55.709Z,78.30
2017-11-16T07:27:24.076Z,80.28
2017-11-16T07:29:52.557Z,79.03
2017-11-16T07:32:20.966Z,79.12
2017-11-16T07:34:49.337Z,73.43
2017-11-16T07:37:17.735Z,76.93
2017-11-16T07:39:46.890Z,94.53
2017-11-16T07:42:15.387Z,70.40
2017-11-16T07:44:43.772Z,66.80
2017-11-16T07:47:12.164Z,82.35
2017-11-16T07:49:41.357Z,69.65
2017-11-16T07:52:10.512Z,76.57
2017-11-16T07:54:39.021Z,73.45
2017-11-16T07:57:07.398Z,68.72
2017-11-16T07:59:35.775Z,73.62
2017-11-16T08:02:04.168Z,72.03
2017-11-16T08:04:33.328Z,75.90
2017-11-16T08:07:02.106Z,70.65
2017-11-16T08:09:30.474Z,72.18
2017-11-16T08:11:58.866Z,61.22
2017-11-16T08:14:27.268Z,63.50
2017-11-16T08:16:55.648Z,53.83
2017-11-16T08:19:24.146Z,73.22
2017-11-16T08:21:52.515Z,63.30
2017-11-16T08:24:20.883Z,74.12
2017-11-16T08:26:49.317Z,64.75
2017-11-16T08:29:17.695Z,73.37
2017-11-16T08:31:46.127Z,66.70
2017-11-16T08:34:14.499Z,69.00
2017-11-16T08:36:42.882Z,72.30
2017-11-16T08:39:11.340Z,75.78
2017-11-16T08:41:39.720Z,61.10
2017-11-16T08:44:08.198Z,74.25
2017-11-16T08:46:36.582Z,88.90
2017-11-16T08:49:04.976Z,66.53
2017-11-16T08:51:33.401Z,71.68
2017-11-16T08:54:01.764Z,65.68
2017-11-16T08:56:31.071Z,59.05
2017-11-16T08:58:59.472Z,64.32
2017-11-16T09:01:27.853Z,61.10
2017-11-16T09:03:56.257Z,64.25
2017-11-16T09:06:24.638Z,63.78
2017-11-16T09:08:53.309Z,57.65
2017-11-16T09:11:21.701Z,63.67
2017-11-16T09:13:50.115Z,60.42
2017-11-16T09:16:19.314Z,60.92
2017-11-16T09:18:48.488Z,63.63
2017-11-16T09:21:17.027Z,64.40
2017-11-16T09:23:45.415Z,61.60
2017-11-16T09:26:13.802Z,66.85
2017-11-16T09:28:42.220Z,75.05
2017-11-16T09:31:10.599Z,64.30
2017-11-16T09:33:38.992Z,70.35
2017-11-16T09:36:08.167Z,73.90
2017-11-16T09:38:36.592Z,72.47
2017-11-16T09:41:05.006Z,70.55
2017-11-16T09:43:33.428Z,60.60
2017-11-16T09:46:02.568Z,81.03
2017-11-16T09:48:30.970Z,63.30
2017-11-16T09:50:59.369Z,78.90
2017-11-16T09:53:27.735Z,66.82
2017-11-16T09:55:57.637Z,68.72
2017-11-16T09:58:26.009Z,62.38
2017-11-16T10:00:54.453Z,79.35
2017-11-16T10:03:22.829Z,58.85
2017-11-16T10:05:51.204Z,76.40
2017-11-16T10:08:19.604Z,74.07
2017-11-16T10:10:47.980Z,66.25
2017-11-16T10:13:16.396Z,65.07
2017-11-16T10:15:44.778Z,67.78
2017-11-16T10:18:13.236Z,73.20
2017-11-16T10:20:41.631Z,72.47
2017-11-16T10:23:10.094Z,73.45
2017-11-16T10:25:38.768Z,78.62
2017-11-16T10:28:07.148Z,64.32
2017-11-16T10:30:35.640Z,64.90
2017-11-16T10:33:04.051Z,55.95
2017-11-16T10:35:32.436Z,71.15
2017-11-16T10:38:00.977Z,69.12
2017-11-16T10:40:29.356Z,69.18
2017-11-16T10:42:57.777Z,94.55
2017-11-16T10:45:26.167Z,66.82
2017-11-16T10:47:55.418Z,76.00
2017-11-16T10:50:23.996Z,68.53
2017-11-16T10:52:52.385Z,67.10
2017-11-16T10:55:20.746Z,64.10
2017-11-16T10:57:49.911Z,73.20
2017-11-16T11:00:18.289Z,62.13
2017-11-16T11:02:46.795Z,70.93
2017-11-16T11:05:15.176Z,52.95
2017-11-16T11:07:43.557Z,59.17
2017-11-16T11:10:11.951Z,60.90
2017-11-16T11:12:40.331Z,65.45
2017-11-16T11:15:08.996Z,66.50
2017-11-16T11:17:37.371Z,66.90
2017-11-16T11:20:05.752Z,64.32
2017-11-16T11:22:34.146Z,65.25
2017-11-16T11:25:02.536Z,54.10
2017-11-16T11:27:30.954Z,64.05
2017-11-16T11:30:00.105Z,63.00
2017-11-16T11:32:28.488Z,63.80
2017-11-16T11:34:56.887Z,64.25
2017-11-16T11:37:26.143Z,65.55
2017-11-16T11:39:54.703Z,72.78
2017-11-16T11:42:23.093Z,110.30
2017-11-16T11:44:51.493Z,58.17
2017-11-16T11:47:19.891Z,65.60
2017-11-16T11:49:48.292Z,51.90
2017-11-16T11:52:17.032Z,63.22
2017-11-16T11:54:45.395Z,69.60
2017-11-16T11:57:13.778Z,61.50
2017-11-16T11:59:42.168Z,57.28
2017-11-16T12:02:10.535Z,55.17
2017-11-16T12:04:39.069Z,55.22
2017-11-16T12:07:07.444Z,74.10
2017-11-16T12:09:35.811Z,59.20
2017-11-16T12:12:04.270Z,57.72
2017-11-16T12:14:32.752Z,62.50
2017-11-16T12:17:01.272Z,53.90
2017-11-16T12:19:30.408Z,67.60
2017-11-16T12:21:58.793Z,58.38
2017-11-16T12:24:27.200Z,61.05
2017-11-16T12:26:55.568Z,54.97
2017-11-16T12:29:24.101Z,66.68
2017-11-16T12:31:53.243Z,58.45
2017-11-16T12:34:21.623Z,58.83
2017-11-16T12:36:50.024Z,57.03
2017-11-16T12:39:18.420Z,56.67
2017-11-16T12:41:47.224Z,56.95
2017-11-16T12:44:15.603Z,60.47
2017-11-16T12:46:43.992Z,58.78
2017-11-16T12:49:12.407Z,63.08
2017-11-16T12:51:40.831Z,55.83
2017-11-16T12:54:10.279Z,54.65
2017-11-16T12:56:38.680Z,64.50
2017-11-16T12:59:07.050Z,59.53
2017-11-16T13:01:35.451Z,68.37
2017-11-16T13:04:03.838Z,52.50
2017-11-16T13:06:32.344Z,63.13
2017-11-16T13:09:00.731Z,52.13
2017-11-16T13:11:29.106Z,60.50
2017-11-16T13:13:57.499Z,60.08
2017-11-16T13:16:25.870Z,54.72
2017-11-16T13:18:54.679Z,55.33
2017-11-16T13:21:23.051Z,61.13
2017-11-16T13:23:51.433Z,57.62
2017-11-16T13:26:19.832Z,55.25
2017-11-16T13:28:48.212Z,65.45
2017-11-16T13:31:16.637Z,59.00
2017-11-16T13:33:45.777Z,52.38
2017-11-16T13:36:14.144Z,57.30
2017-11-16T13:38:42.563Z,62.47
2017-11-16T13:41:11.012Z,59.42
2017-11-16T13:43:39.799Z,51.30
2017-11-16T13:46:08.202Z,61.15
2017-11-16T13:48:36.580Z,62.20
2017-11-16T13:51:04.975Z,51.78
2017-11-16T13:53:34.116Z,56.55
2017-11-16T13:56:02.527Z,49.78
2017-11-16T13:58:30.902Z,63.00
2017-11-16T14:00:59.313Z,62.78
2017-11-16T14:03:28.473Z,64.60
2017-11-16T14:05:56.843Z,57.85
2017-11-16T14:08:25.442Z,55.15
2017-11-16T14:10:53.827Z,57.83
2017-11-16T14:13:22.204Z,61.42
2017-11-16T14:15:50.598Z,58.95
2017-11-16T14:18:19.001Z,60.38
2017-11-16T14:20:48.340Z,61.08
2017-11-16T14:23:16.713Z,66.28
2017-11-16T14:25:45.099Z,64.22
2017-11-16T14:28:13.501Z,58.30
2017-11-16T14:30:42.779Z,59.00
2017-11-16T14:33:11.211Z,61.60
2017-11-16T14:35:40.356Z,66.10
2017-11-16T14:38:09.543Z,68.62
2017-11-16T14:40:37.942Z,71.03
2017-11-16T14:43:06.335Z,65.62
2017-11-16T14:45:35.189Z,57.40
2017-11-16T14:48:03.612Z,61.50
2017-11-16T14:50:32.057Z,66.25
2017-11-16T14:53:01.241Z,60.20
2017-11-16T14:55:29.642Z,66.32
2017-11-16T14:57:58.422Z,64.95
2017-11-16T15:00:26.823Z,67.85
2017-11-16T15:02:55.230Z,60.67
2017-11-16T15:05:24.413Z,69.35
2017-11-16T15:07:52.795Z,66.80
2017-11-16T15:10:21.205Z,56.53
2017-11-16T15:12:49.603Z,60.20
2017-11-16T15:15:18.031Z,66.43
2017-11-16T15:17:46.433Z,73.68
2017-11-16T15:20:14.849Z,75.20
2017-11-16T15:22:43.632Z,77.82
2017-11-16T15:25:12.044Z,79.82
2017-11-16T15:27:40.968Z,74.22
2017-11-16T15:30:09.708Z,74.45
2017-11-16T15:32:38.122Z,87.90
2017-11-16T15:35:07.308Z,86.93
2017-11-16T15:37:35.684Z,85.28
2017-11-16T15:40:04.053Z,80.30
2017-11-16T15:42:32.867Z,80.07
2017-11-16T15:45:02.012Z,75.62
2017-11-16T15:47:30.592Z,75.68
2017-11-16T15:49:58.980Z,77.43
2017-11-16T15:52:27.356Z,74.50
2017-11-16T15:54:55.760Z,81.90
2017-11-16T15:57:24.140Z,96.63
2017-11-16T15:59:52.655Z,79.15
2017-11-16T16:02:21.045Z,100.95
2017-11-16T16:04:49.420Z,92.32
2017-11-16T16:07:17.825Z,85.93
2017-11-16T16:09:46.264Z,79.57
2017-11-16T16:12:15.535Z,87.35
2017-11-16T16:14:43.915Z,87.68
2017-11-16T16:17:12.296Z,100.78
2017-11-16T16:19:40.703Z,95.32
2017-11-16T16:22:09.835Z,91.65
2017-11-16T16:24:38.460Z,80.97
2017-11-16T16:27:06.893Z,78.20
2017-11-16T16:29:35.266Z,81.82
2017-11-16T16:32:03.662Z,68.07
2017-11-16T16:34:32.075Z,69.05
2017-11-16T16:37:00.760Z,71.40
2017-11-16T16:39:29.971Z,62.25
2017-11-16T16:41:59.126Z,75.28
2017-11-16T16:44:27.559Z,61.03
2017-11-16T16:46:56.754Z,66.37
2017-11-16T16:49:26.791Z,66.28
2017-11-16T16:51:56.192Z,70.90
2017-11-16T16:54:24.582Z,73.97
2017-11-16T16:56:53.117Z,74.93
2017-11-16T16:59:21.521Z,72.25
2017-11-16T17:01:50.118Z,78.18
2017-11-16T17:04:18.590Z,74.55
2017-11-16T17:06:47.191Z,60.90
2017-11-16T17:09:15.602Z,58.75
2017-11-16T17:11:44.065Z,78.30
2017-11-16T17:14:12.852Z,78.95
2017-11-16T17:16:41.341Z,80.87
2017-11-16T17:19:09.729Z,71.30
2017-11-16T17:21:38.155Z,71.65
2017-11-16T17:24:06.543Z,67.70
2017-11-16T17:26:34.979Z,72.07
2017-11-16T17:29:03.420Z,87.85
2017-11-16T17:31:31.919Z,77.30
2017-11-16T17:34:00.312Z,91.53
2017-11-16T17:36:28.755Z,75.55
2017-11-16T17:38:57.317Z,80.10
2017-11-16T17:41:25.845Z,76.78
2017-11-16T17:43:54.231Z,76.35
2017-11-16T17:46:22.859Z,77.85
2017-11-16T17:48:51.276Z,81.00
2017-11-16T17:51:19.653Z,78.75
2017-11-16T17:53:48.071Z,86.45
2017-11-16T17:56:16.492Z,75.32
2017-11-16T17:58:44.868Z,76.90
2017-11-16T18:01:13.273Z,75.22
2017-11-16T18:03:41.656Z,83.32
2017-11-16T18:06:10.529Z,91.65
2017-11-16T18:08:38.900Z,86.70
2017-11-16T18:11:07.282Z,81.18
2017-11-16T18:13:35.755Z,71.82
2017-11-16T18:16:04.237Z,100.38
2017-11-16T18:18:32.680Z,88.20
2017-11-16T18:21:01.900Z,87.10
2017-11-16T18:23:31.101Z,117.00
2017-11-16T18:25:59.516Z,95.43
2017-11-16T18:28:28.112Z,86.25
2017-11-16T18:30:57.048Z,89.87
2017-11-16T18:33:25.581Z,82.68
2017-11-16T18:35:54.414Z,82.62
2017-11-16T18:38:22.880Z,87.28
2017-11-16T18:40:52.020Z,78.35
2017-11-16T18:43:20.755Z,87.47
2017-11-16T18:45:49.308Z,75.37
2017-11-16T18:48:17.710Z,79.87
2017-11-16T18:50:46.909Z,77.22
2017-11-16T18:53:15.385Z,81.03
2017-11-16T18:55:45.098Z,76.00
2017-11-16T18:58:13.728Z,79.95
2017-11-16T19:00:42.193Z,72.82
2017-11-16T19:03:11.355Z,73.32
2017-11-16T19:05:39.837Z,69.55
2017-11-16T19:08:08.710Z,70.03
2017-11-16T19:10:37.171Z,83.12
2017-11-16T19:13:05.589Z,74.95
2017-11-16T19:15:34.326Z,84.32
2017-11-16T19:18:03.064Z,65.90
2017-11-16T19:20:32.111Z,69.05
2017-11-16T19:23:00.650Z,80.05
2017-11-16T19:25:29.560Z,65.62
2017-11-16T19:27:58.043Z,76.05
2017-11-16T19:30:26.538Z,77.78
2017-11-16T19:32:55.083Z,55.63
2017-11-16T19:35:23.758Z,70.37
2017-11-16T19:37:53.216Z,93.18
2017-11-16T19:40:21.986Z,65.97
2017-11-16T19:42:50.647Z,73.60
2017-11-16T19:45:19.701Z,75.72
2017-11-16T19:47:48.162Z,63.15
2017-11-16T19:50:16.614Z,53.67
2017-11-16T19:52:46.309Z,59.47
2017-11-16T19:55:15.495Z,66.30
2017-11-16T19:57:44.823Z,57.92
2017-11-16T20:00:14.195Z,59.05
2017-11-16T20:02:43.464Z,74.57
2017-11-16T20:05:12.203Z,64.32
2017-11-16T20:07:41.710Z,66.35
2017-11-16T20:10:11.884Z,60.47
2017-11-16T20:12:41.339Z,60.08
2017-11-16T20:15:10.188Z,67.50
2017-11-16T20:17:39.846Z,56.58
2017-11-16T20:20:08.704Z,55.92
2017-11-16T20:22:37.843Z,50.65
2017-11-16T20:25:06.621Z,56.42
2017-11-16T20:27:35.747Z,61.33
2017-11-16T20:30:04.788Z,53.42
2017-11-16T20:32:33.655Z,55.47
2017-11-16T20:35:03.662Z,55.83
2017-11-16T20:37:38.045Z,55.28
2017-11-16T20:40:12.862Z,43.65
2017-11-16T20:42:47.576Z,60.55
2017-11-16T20:48:42.960Z,56.03
2017-11-16T20:51:18.225Z,69.40
2017-11-16T20:54:01.939Z,63.63
2017-11-16T20:56:31.083Z,67.03
2017-11-16T20:59:00.049Z,66.95
2017-11-16T21:01:28.833Z,57.60
2017-11-16T21:03:58.644Z,64.22
2017-11-16T21:06:28.540Z,64.62
2017-11-16T21:08:58.639Z,57.85
2017-11-16T21:11:27.679Z,58.80
2017-11-16T21:13:56.505Z,72.87
2017-11-16T21:16:25.529Z,66.30
2017-11-16T21:18:54.448Z,64.95
2017-11-16T21:21:24.380Z,55.67
2017-11-16T21:23:53.951Z,61.85
2017-11-16T21:26:23.648Z,65.68
2017-11-16T21:28:52.589Z,64.15
2017-11-16T21:31:21.574Z,66.60
2017-11-16T21:33:50.772Z,65.78
2017-11-16T21:36:19.665Z,67.18
2017-11-16T21:38:49.413Z,66.50
2017-11-16T21:41:19.198Z,66.68
2017-11-16T21:43:48.295Z,62.13
2017-11-16T21:46:17.132Z,64.15
2017-11-16T21:48:46.818Z,69.60
2017-11-16T21:51:16.484Z,64.82
2017-11-16T21:53:45.319Z,58.10
2017-11-16T21:56:14.355Z,56.78
2017-11-16T21:58:43.226Z,64.25
2017-11-16T22:01:12.525Z,62.47
2017-11-16T22:03:41.548Z,61.92
2017-11-16T22:06:10.345Z,58.05
2017-11-16T22:08:39.251Z,64.75
2017-11-16T22:11:08.266Z,66.53
2017-11-16T22:13:37.072Z,52.25
2017-11-16T22:16:05.964Z,52.55
2017-11-16T22:18:34.826Z,44.67
2017-11-16T22:21:03.775Z,50.53
2017-11-16T22:23:33.264Z,60.92
2017-11-16T22:26:02.184Z,53.30
2017-11-16T22:28:30.932Z,46.70
2017-11-16T22:30:59.409Z,48.25
2017-11-16T22:33:27.927Z,52.13
2017-11-16T22:35:56.426Z,46.50
2017-11-16T22:38:25.723Z,42.28
2017-11-16T22:40:55.081Z,43.03
2017-11-16T22:43:24.379Z,39.00
2017-11-16T22:45:53.027Z,43.28
2017-11-16T22:48:21.612Z,47.40
2017-11-16T22:50:50.163Z,42.47
2017-11-16T22:53:18.542Z,41.53
2017-11-16T22:55:46.938Z,41.17
2017-11-16T22:58:16.100Z,41.42
2017-11-16T23:00:44.532Z,39.28
2017-11-16T23:03:13.378Z,46.17
2017-11-16T23:05:42.555Z,42.78
2017-11-16T23:08:10.940Z,45.83
2017-11-16T23:10:39.350Z,54.13
2017-11-16T23:13:08.491Z,42.03
2017-11-16T23:15:37.204Z,55.63
2017-11-16T23:18:05.567Z,46.95
2017-11-16T23:20:33.940Z,47.10
2017-11-16T23:23:02.438Z,47.53
2017-11-16T23:25:30.820Z,46.37
2017-11-16T23:27:59.490Z,54.53
2017-11-16T23:30:27.888Z,49.03
2017-11-16T23:32:56.268Z,49.33
2017-11-16T23:35:24.672Z,70.95
2017-11-16T23:37:53.804Z,65.95
2017-11-16T23:40:22.599Z,60.60
2017-11-16T23:42:50.963Z,70.72
2017-11-16T23:45:19.335Z,71.07
2017-11-16T23:47:47.746Z,58.33
2017-11-16T23:50:16.113Z,82.32
2017-11-16T23:52:44.903Z,65.62
2017-11-16T23:55:13.290Z,65.65
2017-11-16T23:57:41.659Z,79.18
